Sandy Lake, Canada
Current Conditions -  °F | °C
As of 6:11 PM on Wednesday 22 Oct 2014 (Local Time) from CZSJ Reporting Station
Overcast Overcast  
Wind Chill: 55°   Ceiling: 12000
Heat Index: 55°   Visibility: 9mi
Dew Point: 45°   Wind: 6mph
Humidity: 67%   Direction: 200°SSW
Pressure: 29.74"   Gusts: NA
Location:  53.03°N, 93.23°W
Report Text: CZSJ 222311Z AUTO 20005KT 160V240 9SM BKN120 OVC140 13/07 A2974 RMK SLP082 DENSITY ALT 1100FT
Loading
Personal Weather Stations






























Interactive Weather Map
Tropical Storm Tracking
New forecast layout! Learn more

10-Day Weather Forecast

Advertisements
Track Severe Weather on mobile